createdAt,value
2023-05-05T00:09:40.546Z,95.80
2023-05-05T00:19:43.011Z,97.14
2023-05-05T00:29:45.626Z,96.60
2023-05-05T00:39:48.130Z,95.47
2023-05-05T00:49:51.118Z,100.00
2023-05-05T00:59:55.075Z,100.00
2023-05-05T01:10:36.214Z,100.00
2023-05-05T01:20:53.513Z,99.75
2023-05-05T01:31:16.529Z,100.00
2023-05-05T01:41:25.348Z,99.68
2023-05-05T01:51:28.739Z,100.00
2023-05-05T02:01:32.011Z,99.68
2023-05-05T02:11:34.919Z,99.05
2023-05-05T02:21:37.907Z,97.95
2023-05-05T02:31:53.556Z,98.26
2023-05-05T02:42:03.522Z,100.00
2023-05-05T02:52:06.612Z,99.03
2023-05-05T03:02:21.881Z,98.95
2023-05-05T03:12:31.364Z,98.25
2023-05-05T03:22:48.478Z,98.70
2023-05-05T03:32:52.030Z,98.32
2023-05-05T03:42:55.246Z,100.00
2023-05-05T03:52:57.940Z,99.69
2023-05-05T04:03:00.952Z,98.82
2023-05-05T04:13:04.281Z,97.38
2023-05-05T04:23:07.501Z,99.47
2023-05-05T04:33:11.224Z,100.00
2023-05-05T04:43:13.754Z,99.78
2023-05-05T04:53:16.490Z,96.85
2023-05-05T05:03:19.683Z,93.25
2023-05-05T05:13:23.002Z,91.65
2023-05-05T05:23:27.613Z,90.25
2023-05-05T05:33:30.650Z,87.31
2023-05-05T05:43:34.757Z,82.48
2023-05-05T05:53:38.914Z,78.54
2023-05-05T06:03:42.167Z,73.80
2023-05-05T06:13:44.964Z,73.40
2023-05-05T06:23:47.920Z,70.28
2023-05-05T06:33:51.145Z,67.09
2023-05-05T06:43:53.636Z,67.64
2023-05-05T06:53:57.282Z,65.03
2023-05-05T07:04:00.788Z,65.24
2023-05-05T07:14:03.562Z,61.19
2023-05-05T07:24:07.032Z,57.09
2023-05-05T07:34:09.888Z,58.90
2023-05-05T07:44:12.769Z,57.81
2023-05-05T07:54:16.687Z,59.97
2023-05-05T08:14:53.014Z,54.31
2023-05-05T08:24:55.725Z,50.14
2023-05-05T08:34:58.360Z,52.12
2023-05-05T08:45:00.979Z,51.60
2023-05-05T08:55:18.109Z,48.49
2023-05-05T09:05:20.961Z,46.49
2023-05-05T09:15:23.714Z,44.42
2023-05-05T09:25:26.296Z,46.33
2023-05-05T09:35:47.399Z,44.79
2023-05-05T09:45:51.019Z,43.21
2023-05-05T09:55:55.281Z,44.08
2023-05-05T10:05:59.763Z,45.18
2023-05-05T10:16:04.487Z,42.85
2023-05-05T10:26:10.352Z,42.88
2023-05-05T10:36:14.964Z,40.58
2023-05-05T10:46:18.123Z,42.44
2023-05-05T10:56:30.275Z,40.93
2023-05-05T11:06:32.890Z,39.65
2023-05-05T11:16:48.215Z,41.09
2023-05-05T11:26:51.932Z,37.19
2023-05-05T11:37:01.794Z,37.72
2023-05-05T11:47:04.541Z,41.11
2023-05-05T11:57:08.987Z,38.26
2023-05-05T12:07:16.222Z,40.03
2023-05-05T12:17:21.208Z,37.72
2023-05-05T12:27:25.005Z,37.71
2023-05-05T12:37:27.787Z,36.53
2023-05-05T12:47:32.496Z,38.77
2023-05-05T12:57:35.052Z,33.34
2023-05-05T13:07:50.554Z,36.99
2023-05-05T13:18:00.861Z,36.30
2023-05-05T13:28:03.545Z,34.47
2023-05-05T13:38:06.064Z,39.35
2023-05-05T13:48:09.037Z,35.90
2023-05-05T13:58:11.676Z,33.24
2023-05-05T14:08:14.443Z,33.26
2023-05-05T14:18:17.192Z,33.28
2023-05-05T14:28:20.112Z,34.44
2023-05-05T14:38:22.789Z,33.48
2023-05-05T14:48:25.410Z,30.47
2023-05-05T14:58:27.952Z,30.75
2023-05-05T15:08:30.885Z,31.21
2023-05-05T15:18:33.825Z,32.72
2023-05-05T15:28:36.532Z,29.85
2023-05-05T15:38:44.994Z,33.58
2023-05-05T15:48:47.429Z,32.34
2023-05-05T15:58:52.679Z,34.60
2023-05-05T16:09:00.716Z,37.92
2023-05-05T16:19:03.807Z,36.39
2023-05-05T16:29:06.317Z,39.84
2023-05-05T16:39:08.872Z,40.94
2023-05-05T16:49:11.854Z,42.98
2023-05-05T16:59:16.734Z,45.27
2023-05-05T17:09:19.448Z,46.78
2023-05-05T17:19:21.936Z,48.60
2023-05-05T17:29:24.550Z,50.52
2023-05-05T17:39:27.189Z,52.97
2023-05-05T17:49:29.913Z,54.28
2023-05-05T17:59:32.406Z,55.38
2023-05-05T18:09:36.224Z,57.11
2023-05-05T18:19:42.862Z,57.38
2023-05-05T18:29:45.622Z,59.71
2023-05-05T18:39:48.329Z,61.74
2023-05-05T18:49:50.811Z,62.79
2023-05-05T18:59:53.394Z,62.54
2023-05-05T19:09:56.416Z,63.38
2023-05-05T19:19:59.291Z,64.84
2023-05-05T19:30:01.886Z,66.32
2023-05-05T19:40:04.963Z,66.03
2023-05-05T19:50:08.414Z,69.65
2023-05-05T20:00:11.933Z,72.55
2023-05-05T20:10:14.691Z,73.89
2023-05-05T20:20:20.053Z,77.00
2023-05-05T20:30:22.641Z,77.54
2023-05-05T20:40:26.203Z,76.67
2023-05-05T20:50:28.739Z,79.58
2023-05-05T21:00:31.571Z,79.16
2023-05-05T21:10:34.718Z,84.51
2023-05-05T21:20:37.315Z,84.04
2023-05-05T21:30:39.962Z,82.46
2023-05-05T21:40:42.786Z,87.39
2023-05-05T21:50:46.063Z,87.00
2023-05-05T22:00:49.781Z,84.47
2023-05-05T22:10:52.386Z,84.16
2023-05-05T22:20:54.892Z,84.75
2023-05-05T22:30:57.838Z,87.71
2023-05-05T22:41:01.031Z,87.56
2023-05-05T22:51:03.779Z,88.17
2023-05-05T23:01:06.346Z,91.30
2023-05-05T23:11:08.999Z,93.40
2023-05-05T23:21:11.515Z,95.89
2023-05-05T23:31:14.112Z,93.40
2023-05-05T23:41:18.421Z,95.54
2023-05-05T23:51:21.170Z,92.07
